KLBB/LBB METAR and TAF weather

Enter ICAO airport designator
Station Type Date Time Source
KLBB METAR 2019/04/26 03:53 UTC NOAA

KLBB 260353Z 05008KT 10SM CLR 16/09 A3018 RMK AO2 SLP184 T01560094


Station Type Date Time Source
KLBB Decoded METAR 2019/04/26 03:53 UTC NOAA

LUBBOCK INTERNATIONAL AIRPORT , TX, United States (KLBB) 33-40N 101-49W 992M
Apr 25, 2019 - 11:53 PM EDT / 2019.04.26 0353 UTC
Wind: from the NE (050 degrees) at 9 MPH (8 KT):0
Visibility: 10 mile(s):0
Sky conditions: clear
Temperature: 60.1 F (15.6 C)
Dew Point: 48.9 F (9.4 C)
Relative Humidity: 66%
Pressure (altimeter): 30.18 in. Hg (1022 hPa)
ob: KLBB 260353Z 05008KT 10SM CLR 16/09 A3018 RMK AO2 SLP184 T01560094
cycle: 4

Station Type Date Time Source
KLBB TAF 2019/04/25 18:22 UTC NOAA

TAF KLBB 251720Z 2518/2618 01015G25KT P6SM FEW100
FM260000 05011KT P6SM SCT120
FM261500 14015KT P6SM SCT100 BKN150

Example: see airport list